Perrysville, Ohio
Current Conditions -  °F | °C
As of 5:59 PM on Friday 19 Dec 2014 (Local Time) from KMFD Reporting Station
Overcast Overcast  
Wind Chill: 28°   Ceiling: 1700
Heat Index: 28°   Visibility: 10mi
Dew Point: 21°   Wind: 0mph
Humidity: 75%   Direction: NA
Pressure: 30.25"   Gusts: NA
Location:  40.66°N, 82.31°W
Report Text: KMFD 192259Z 00000KT 10SM OVC017 M02/M06 A3025 RMK AO2 T10221061
Loading
Personal Weather Stations






























Interactive Weather Map New forecast layout! Learn more

10-Day Weather Forecast

Advertisements
Track Severe Weather on mobile